createdAt,value
2022-11-20T00:01:12.933Z,89.76
2022-11-20T00:04:11.269Z,93.09
2022-11-20T00:07:08.679Z,87.88
2022-11-20T00:10:06.540Z,84.94
2022-11-20T00:13:03.542Z,86.89
2022-11-20T00:16:00.829Z,89.11
2022-11-20T00:18:58.114Z,86.57
2022-11-20T00:21:56.385Z,84.51
2022-11-20T00:24:53.292Z,84.80
2022-11-20T00:27:50.229Z,84.62
2022-11-20T00:30:47.019Z,83.68
2022-11-20T00:33:44.099Z,87.30
2022-11-20T00:36:41.173Z,86.88
2022-11-20T00:39:38.307Z,86.66
2022-11-20T00:42:34.983Z,85.31
2022-11-20T00:45:32.350Z,87.53
2022-11-20T00:48:29.226Z,84.46
2022-11-20T00:51:27.081Z,83.36
2022-11-20T00:54:24.179Z,83.88
2022-11-20T00:57:22.075Z,85.21
2022-11-20T01:00:19.531Z,84.72
2022-11-20T01:03:18.853Z,85.69
2022-11-20T01:06:25.627Z,84.81
2022-11-20T01:09:23.685Z,84.38
2022-11-20T01:12:21.008Z,85.62
2022-11-20T01:15:18.771Z,86.01
2022-11-20T01:18:16.398Z,84.45
2022-11-20T01:21:23.955Z,84.14
2022-11-20T01:24:21.779Z,85.51
2022-11-20T01:27:19.175Z,83.53
2022-11-20T01:30:16.520Z,83.49
2022-11-20T01:33:13.263Z,87.30
2022-11-20T01:36:10.984Z,86.86
2022-11-20T01:39:13.565Z,85.84
2022-11-20T01:42:28.725Z,87.38
2022-11-20T01:45:58.194Z,86.45
2022-11-20T01:49:03.424Z,84.66
2022-11-20T01:52:02.692Z,86.47
2022-11-20T01:55:05.742Z,84.78
2022-11-20T01:58:03.248Z,84.10
2022-11-20T02:01:00.159Z,83.58
2022-11-20T02:03:57.783Z,81.58
2022-11-20T02:06:58.995Z,80.07
2022-11-20T02:09:58.704Z,80.92
2022-11-20T02:13:15.198Z,80.52
2022-11-20T02:16:22.764Z,82.72
2022-11-20T02:19:31.106Z,83.96
2022-11-20T02:22:34.484Z,85.73
2022-11-20T02:25:31.004Z,86.19
2022-11-20T02:28:28.367Z,89.31
2022-11-20T02:31:25.283Z,88.72
2022-11-20T02:34:22.231Z,88.75
2022-11-20T02:37:19.258Z,90.40
2022-11-20T02:40:16.379Z,90.30
2022-11-20T02:43:13.292Z,90.56
2022-11-20T02:46:10.598Z,89.45
2022-11-20T02:49:07.130Z,89.62
2022-11-20T02:52:04.845Z,89.67
2022-11-20T02:55:02.506Z,91.79
2022-11-20T02:57:59.437Z,95.24
2022-11-20T03:00:56.141Z,95.93
2022-11-20T03:03:55.797Z,96.73
2022-11-20T03:06:53.411Z,94.10
2022-11-20T03:09:50.556Z,92.14
2022-11-20T03:12:47.080Z,89.55
2022-11-20T03:15:44.426Z,88.32
2022-11-20T03:18:41.721Z,89.93
2022-11-20T03:21:39.689Z,95.26
2022-11-20T03:24:36.113Z,94.37
2022-11-20T03:27:35.362Z,90.87
2022-11-20T03:30:32.688Z,89.09
2022-11-20T03:33:29.369Z,90.50
2022-11-20T03:36:26.586Z,88.66
2022-11-20T03:39:23.448Z,90.86
2022-11-20T03:42:39.913Z,92.71
2022-11-20T03:45:37.087Z,94.28
2022-11-20T03:48:34.753Z,95.30
2022-11-20T03:51:33.637Z,96.29
2022-11-20T03:54:30.261Z,96.75
2022-11-20T03:57:27.415Z,92.60
2022-11-20T04:00:24.685Z,91.79
2022-11-20T04:03:21.480Z,89.85
2022-11-20T04:06:21.290Z,91.86
2022-11-20T04:09:18.961Z,91.80
2022-11-20T04:12:16.194Z,93.88
2022-11-20T04:15:13.548Z,92.85
2022-11-20T04:18:10.094Z,92.60
2022-11-20T04:21:07.289Z,91.71
2022-11-20T04:24:04.699Z,88.52
2022-11-20T04:27:01.251Z,87.47
2022-11-20T04:29:58.147Z,89.97
2022-11-20T04:32:55.393Z,91.57
2022-11-20T04:35:52.439Z,91.16
2022-11-20T04:38:57.487Z,91.44
2022-11-20T04:42:14.483Z,92.38
2022-11-20T04:45:11.734Z,94.98
2022-11-20T04:48:08.546Z,94.01
2022-11-20T04:51:05.447Z,92.96
2022-11-20T04:54:02.464Z,89.70
2022-11-20T04:56:59.499Z,87.12
2022-11-20T04:59:56.356Z,92.44
2022-11-20T05:02:53.426Z,96.45
2022-11-20T05:05:50.360Z,94.89
2022-11-20T05:08:47.681Z,93.01
2022-11-20T05:11:47.096Z,94.90
2022-11-20T05:14:47.386Z,98.26
2022-11-20T05:17:51.228Z,97.90
2022-11-20T05:20:55.161Z,95.89
2022-11-20T05:23:52.512Z,94.88
2022-11-20T05:26:49.350Z,94.30
2022-11-20T05:29:46.766Z,92.33
2022-11-20T05:32:43.518Z,93.01
2022-11-20T05:35:40.359Z,94.10
2022-11-20T05:38:37.449Z,94.80
2022-11-20T05:41:34.411Z,95.97
2022-11-20T05:44:31.301Z,94.06
2022-11-20T05:47:28.982Z,94.47
2022-11-20T05:50:27.256Z,91.22
2022-11-20T05:53:27.569Z,90.98
2022-11-20T05:56:24.489Z,89.30
2022-11-20T05:59:21.647Z,90.83
2022-11-20T06:02:19.502Z,93.72
2022-11-20T06:05:16.284Z,93.92
2022-11-20T06:08:13.219Z,91.51
2022-11-20T06:11:11.282Z,90.07
2022-11-20T06:14:08.182Z,88.80
2022-11-20T06:17:05.401Z,87.73
2022-11-20T06:20:02.588Z,88.33
2022-11-20T06:22:59.262Z,88.23
2022-11-20T06:25:56.190Z,91.67
2022-11-20T06:28:56.244Z,92.02
2022-11-20T06:31:53.505Z,96.65
2022-11-20T06:34:50.873Z,99.97
2022-11-20T06:37:48.340Z,99.25
2022-11-20T06:40:45.739Z,97.32
2022-11-20T06:43:42.888Z,100.00
2022-11-20T06:46:40.263Z,100.00
2022-11-20T06:49:39.392Z,98.37
2022-11-20T06:52:40.855Z,99.91
2022-11-20T06:55:47.464Z,98.17
2022-11-20T06:58:44.991Z,98.96
2022-11-20T07:01:42.396Z,96.67
2022-11-20T07:04:40.191Z,94.57
2022-11-20T07:07:37.627Z,95.20
2022-11-20T07:10:34.887Z,94.58
2022-11-20T07:13:32.635Z,93.77
2022-11-20T07:16:29.419Z,93.67
2022-11-20T07:19:26.577Z,91.40
2022-11-20T07:22:23.950Z,91.90
2022-11-20T07:25:21.350Z,93.23
2022-11-20T07:28:19.835Z,95.36
2022-11-20T07:31:19.441Z,94.67
2022-11-20T07:34:16.780Z,91.15
2022-11-20T07:37:13.633Z,88.61
2022-11-20T07:40:11.020Z,87.74
2022-11-20T07:43:08.795Z,86.56
2022-11-20T07:46:05.762Z,88.51
2022-11-20T07:49:02.713Z,88.29
2022-11-20T07:52:04.550Z,87.99
2022-11-20T07:55:02.780Z,86.28
2022-11-20T07:58:00.040Z,87.07
2022-11-20T08:00:57.731Z,88.98
2022-11-20T08:03:54.858Z,87.43
2022-11-20T08:06:53.303Z,86.90
2022-11-20T08:09:51.656Z,85.04
2022-11-20T08:13:10.909Z,85.49
2022-11-20T08:16:08.646Z,84.45
2022-11-20T08:19:06.126Z,84.95
2022-11-20T08:22:03.877Z,81.36
2022-11-20T08:25:00.576Z,79.70
2022-11-20T08:28:08.956Z,80.58
2022-11-20T08:31:12.454Z,80.97
2022-11-20T08:34:10.754Z,81.52
2022-11-20T08:37:09.600Z,81.71
2022-11-20T08:40:07.189Z,80.08
2022-11-20T08:43:04.600Z,80.76
2022-11-20T08:46:02.697Z,80.40
2022-11-20T08:48:59.720Z,81.13
2022-11-20T08:51:56.446Z,80.40
2022-11-20T08:54:53.771Z,81.23
2022-11-20T08:57:51.139Z,82.83
2022-11-20T09:00:48.525Z,84.83
2022-11-20T09:03:45.718Z,86.17
2022-11-20T09:06:43.019Z,84.59
2022-11-20T09:09:40.512Z,81.79
2022-11-20T09:12:37.645Z,78.55
2022-11-20T09:15:35.113Z,77.70
2022-11-20T09:18:37.157Z,78.02
2022-11-20T09:21:34.617Z,78.66
2022-11-20T09:24:31.564Z,78.04
2022-11-20T09:27:28.546Z,78.87
2022-11-20T09:30:25.885Z,77.71
2022-11-20T09:33:22.651Z,79.17
2022-11-20T09:36:19.778Z,81.73
2022-11-20T09:39:16.945Z,84.40
2022-11-20T09:42:35.532Z,86.66
2022-11-20T09:46:00.006Z,84.87
2022-11-20T09:49:31.895Z,84.46
2022-11-20T09:52:42.582Z,82.77
2022-11-20T09:55:40.382Z,82.93
2022-11-20T09:58:48.822Z,82.76
2022-11-20T10:01:45.767Z,83.07
2022-11-20T10:04:46.123Z,82.51
2022-11-20T10:08:20.424Z,82.54
2022-11-20T10:11:42.875Z,82.10
2022-11-20T10:15:01.164Z,81.03
2022-11-20T10:18:08.164Z,79.60
2022-11-20T10:21:11.783Z,77.17
2022-11-20T10:24:30.357Z,81.10
2022-11-20T10:27:33.864Z,83.86
2022-11-20T10:30:31.940Z,84.69
2022-11-20T10:34:05.147Z,83.03
2022-11-20T10:37:25.060Z,85.42
2022-11-20T10:40:30.171Z,86.02
2022-11-20T10:43:33.753Z,85.16
2022-11-20T10:46:55.068Z,83.49
2022-11-20T10:50:14.493Z,83.37
2022-11-20T10:53:38.749Z,82.32
2022-11-20T10:56:50.166Z,82.54
2022-11-20T10:59:53.600Z,80.07
2022-11-20T11:02:54.862Z,78.64
2022-11-20T11:05:55.812Z,79.10
2022-11-20T11:08:54.329Z,80.08
2022-11-20T11:11:51.812Z,80.33
2022-11-20T11:14:56.436Z,79.77
2022-11-20T11:17:54.109Z,77.13
2022-11-20T11:20:52.524Z,75.26
2022-11-20T11:23:49.674Z,77.99
2022-11-20T11:27:19.138Z,78.83
2022-11-20T11:30:17.901Z,77.45
2022-11-20T11:33:23.741Z,77.01
2022-11-20T11:36:22.743Z,75.36
2022-11-20T11:39:20.725Z,73.90
2022-11-20T11:42:18.747Z,73.68
2022-11-20T11:45:18.244Z,73.79
2022-11-20T11:48:15.891Z,73.10
2022-11-20T11:51:12.958Z,75.27
2022-11-20T11:54:23.062Z,77.48
2022-11-20T11:57:29.688Z,78.75
2022-11-20T12:00:26.982Z,80.03
2022-11-20T12:03:28.705Z,82.17
2022-11-20T12:06:25.976Z,82.64
2022-11-20T12:09:22.891Z,81.07
2022-11-20T12:12:37.517Z,82.04
2022-11-20T12:15:35.093Z,82.76
2022-11-20T12:18:33.036Z,82.03
2022-11-20T12:21:58.489Z,82.67
2022-11-20T12:25:12.741Z,82.59
2022-11-20T12:28:29.290Z,82.55
2022-11-20T12:31:42.365Z,83.55
2022-11-20T12:34:49.459Z,84.85
2022-11-20T12:38:03.347Z,83.66
2022-11-20T12:41:56.642Z,82.89
2022-11-20T12:45:12.033Z,80.40
2022-11-20T12:48:32.708Z,81.72
2022-11-20T12:51:38.481Z,79.96
2022-11-20T12:55:01.504Z,78.09
2022-11-20T12:58:18.597Z,78.26
2022-11-20T13:01:41.544Z,79.66
2022-11-20T13:05:01.042Z,79.98
2022-11-20T13:07:57.974Z,81.62
2022-11-20T13:11:20.559Z,81.85
2022-11-20T13:14:59.438Z,81.51
2022-11-20T13:18:01.318Z,82.18
2022-11-20T13:20:58.854Z,81.70
2022-11-20T13:24:05.623Z,81.88
2022-11-20T13:27:08.793Z,81.04
2022-11-20T13:30:18.369Z,81.54
2022-11-20T13:33:40.324Z,81.44
2022-11-20T13:36:37.740Z,80.95
2022-11-20T13:39:35.914Z,80.78
2022-11-20T13:42:32.662Z,80.45
2022-11-20T13:45:33.299Z,80.50
2022-11-20T13:48:40.960Z,80.56
2022-11-20T13:51:45.020Z,80.26
2022-11-20T13:54:54.417Z,80.64
2022-11-20T13:58:22.402Z,80.99
2022-11-20T14:01:25.079Z,81.13
2022-11-20T14:04:28.270Z,81.68
2022-11-20T14:07:29.096Z,82.67
2022-11-20T14:10:31.684Z,82.96
2022-11-20T14:13:29.777Z,83.36
2022-11-20T14:16:27.911Z,83.67
2022-11-20T14:19:29.943Z,83.82
2022-11-20T14:22:27.529Z,84.57
2022-11-20T14:25:28.328Z,85.18
2022-11-20T14:28:30.241Z,85.08
2022-11-20T14:31:27.920Z,85.59
2022-11-20T14:34:26.290Z,85.33
2022-11-20T14:37:27.480Z,84.78
2022-11-20T14:40:27.611Z,84.60
2022-11-20T14:43:26.630Z,84.85
2022-11-20T14:46:23.906Z,85.06
2022-11-20T14:49:20.958Z,85.55
2022-11-20T14:52:20.041Z,85.17
2022-11-20T14:55:29.292Z,85.79
2022-11-20T14:58:32.867Z,85.18
2022-11-20T15:01:30.852Z,84.52
2022-11-20T15:04:28.330Z,85.00
2022-11-20T15:07:27.306Z,85.28
2022-11-20T15:10:26.360Z,85.08
2022-11-20T15:13:34.439Z,85.01
2022-11-20T15:16:31.939Z,84.72
2022-11-20T15:19:29.008Z,85.03
2022-11-20T15:22:26.014Z,84.32
2022-11-20T15:25:23.826Z,84.95
2022-11-20T15:28:42.496Z,86.02
2022-11-20T15:31:42.482Z,85.82
2022-11-20T15:34:40.083Z,85.76
2022-11-20T15:37:40.549Z,84.80
2022-11-20T15:40:38.042Z,84.47
2022-11-20T15:43:34.983Z,85.21
2022-11-20T15:46:39.160Z,85.14
2022-11-20T15:49:36.220Z,85.45
2022-11-20T15:52:41.913Z,85.63
2022-11-20T15:55:39.751Z,86.38
2022-11-20T15:58:37.108Z,86.45
2022-11-20T16:01:33.729Z,86.56
2022-11-20T16:04:31.164Z,87.00
2022-11-20T16:07:28.043Z,87.36
2022-11-20T16:10:25.055Z,88.09
2022-11-20T16:13:40.481Z,88.73
2022-11-20T16:16:38.736Z,88.52
2022-11-20T16:19:36.237Z,87.94
2022-11-20T16:22:34.167Z,88.15
2022-11-20T16:25:31.342Z,87.99
2022-11-20T16:28:29.141Z,87.91
2022-11-20T16:31:26.154Z,88.02
2022-11-20T16:34:23.045Z,88.82
2022-11-20T16:37:20.213Z,88.83
2022-11-20T16:40:17.200Z,88.67
2022-11-20T16:43:14.478Z,88.82
2022-11-20T16:46:11.854Z,87.85
2022-11-20T16:49:13.262Z,87.76
2022-11-20T16:52:09.690Z,88.03
2022-11-20T16:55:07.032Z,89.07
2022-11-20T16:58:04.075Z,89.42
2022-11-20T17:01:10.772Z,89.15
2022-11-20T17:04:08.021Z,88.66
2022-11-20T17:07:08.136Z,88.34
2022-11-20T17:10:06.439Z,88.48
2022-11-20T17:13:04.108Z,89.28
2022-11-20T17:16:03.108Z,90.07
2022-11-20T17:19:03.212Z,89.27
2022-11-20T17:22:01.091Z,88.36
2022-11-20T17:24:57.868Z,88.87
2022-11-20T17:27:55.121Z,89.65
2022-11-20T17:30:51.981Z,90.20
2022-11-20T17:33:49.021Z,90.48
2022-11-20T17:36:46.620Z,91.24
2022-11-20T17:39:44.940Z,91.53
2022-11-20T17:42:42.019Z,91.03
2022-11-20T17:45:39.195Z,90.56
2022-11-20T17:48:36.168Z,90.73
2022-11-20T17:51:35.024Z,90.67
2022-11-20T17:54:31.873Z,90.77
2022-11-20T17:57:47.470Z,91.49
2022-11-20T18:00:45.036Z,91.81
2022-11-20T18:03:41.802Z,91.96
2022-11-20T18:06:39.049Z,91.74
2022-11-20T18:09:36.407Z,91.68
2022-11-20T18:12:34.175Z,92.37
2022-11-20T18:15:31.093Z,92.37
2022-11-20T18:18:28.053Z,92.31
2022-11-20T18:21:25.886Z,92.74
2022-11-20T18:24:23.232Z,92.65
2022-11-20T18:27:21.111Z,92.47
2022-11-20T18:30:18.096Z,92.64
2022-11-20T18:33:14.974Z,92.45
2022-11-20T18:36:12.596Z,92.01
2022-11-20T18:39:10.834Z,92.26
2022-11-20T18:42:31.575Z,91.86
2022-11-20T18:45:30.448Z,91.60
2022-11-20T18:48:28.286Z,91.78
2022-11-20T18:51:26.243Z,92.17
2022-11-20T18:54:23.653Z,92.03
2022-11-20T18:57:22.764Z,91.98
2022-11-20T19:00:20.424Z,92.41
2022-11-20T19:03:18.383Z,92.43
2022-11-20T19:06:16.613Z,92.95
2022-11-20T19:09:14.311Z,92.85
2022-11-20T19:12:12.047Z,93.39
2022-11-20T19:15:09.379Z,93.47
2022-11-20T19:18:07.206Z,93.85
2022-11-20T19:21:09.073Z,94.73
2022-11-20T19:24:06.195Z,94.45
2022-11-20T19:27:04.071Z,94.35
2022-11-20T19:30:03.387Z,95.09
2022-11-20T19:33:00.793Z,95.48
2022-11-20T19:35:58.612Z,93.98
2022-11-20T19:38:56.331Z,93.71
2022-11-20T19:41:54.045Z,92.53
2022-11-20T19:44:50.993Z,92.13
2022-11-20T19:51:12.233Z,90.14
2022-11-20T19:54:09.267Z,91.05
2022-11-20T19:57:05.930Z,91.21
2022-11-20T20:00:02.795Z,90.79
2022-11-20T20:03:02.559Z,90.89
2022-11-20T20:06:11.148Z,90.41
2022-11-20T20:09:10.152Z,90.01
2022-11-20T20:12:07.007Z,90.24
2022-11-20T20:15:05.508Z,90.69
2022-11-20T20:18:03.295Z,90.40
2022-11-20T20:21:08.087Z,89.76
2022-11-20T20:24:05.370Z,89.54
2022-11-20T20:27:03.124Z,89.51
2022-11-20T20:29:59.952Z,89.34
2022-11-20T20:32:57.923Z,89.01
2022-11-20T20:35:55.242Z,89.16
2022-11-20T20:38:56.244Z,88.95
2022-11-20T20:41:52.964Z,89.04
2022-11-20T20:45:08.162Z,89.39
2022-11-20T20:48:05.397Z,89.08
2022-11-20T20:51:08.599Z,88.62
2022-11-20T20:54:06.400Z,88.59
2022-11-20T20:57:04.463Z,88.24
2022-11-20T21:00:02.339Z,88.82
2022-11-20T21:02:59.104Z,89.22
2022-11-20T21:05:57.265Z,89.32
2022-11-20T21:08:55.996Z,89.75
2022-11-20T21:11:53.019Z,89.59
2022-11-20T21:14:50.299Z,89.57
2022-11-20T21:17:47.301Z,90.24
2022-11-20T21:21:03.505Z,90.20
2022-11-20T21:24:01.063Z,90.22
2022-11-20T21:26:58.321Z,89.47
2022-11-20T21:29:55.052Z,90.57
2022-11-20T21:32:52.208Z,91.36
2022-11-20T21:35:49.140Z,91.78
2022-11-20T21:38:46.591Z,91.19
2022-11-20T21:41:43.955Z,89.95
2022-11-20T21:44:41.254Z,88.77
2022-11-20T21:47:38.000Z,89.53
2022-11-20T21:50:35.041Z,91.06
2022-11-20T21:53:32.280Z,91.80
2022-11-20T21:56:29.385Z,91.24
2022-11-20T21:59:25.995Z,90.19
2022-11-20T22:02:23.509Z,89.52
2022-11-20T22:05:21.319Z,89.56
2022-11-20T22:08:17.878Z,89.38
2022-11-20T22:11:17.513Z,89.33
2022-11-20T22:14:21.263Z,89.11
2022-11-20T22:17:39.396Z,88.33
2022-11-20T22:20:36.108Z,87.63
2022-11-20T22:23:34.064Z,88.44
2022-11-20T22:26:34.924Z,88.57
2022-11-20T22:29:36.086Z,87.69
2022-11-20T22:32:33.126Z,88.16
2022-11-20T22:35:30.441Z,89.08
2022-11-20T22:38:29.627Z,88.24
2022-11-20T22:41:27.940Z,87.68
2022-11-20T22:44:25.030Z,86.22
2022-11-20T22:47:21.933Z,85.87
2022-11-20T22:50:19.668Z,87.28
2022-11-20T22:53:17.242Z,87.72
2022-11-20T22:56:14.348Z,87.94
2022-11-20T22:59:11.390Z,89.74
2022-11-20T23:02:07.933Z,89.99
2022-11-20T23:05:05.422Z,89.39
2022-11-20T23:08:02.120Z,87.25
2022-11-20T23:11:10.265Z,87.17
2022-11-20T23:14:13.863Z,86.15
2022-11-20T23:17:11.395Z,86.69
2022-11-20T23:20:10.008Z,86.08
2022-11-20T23:23:07.229Z,87.47
2022-11-20T23:26:06.770Z,88.22
2022-11-20T23:29:04.223Z,88.15
2022-11-20T23:32:01.553Z,87.22
2022-11-20T23:34:58.340Z,86.55
2022-11-20T23:37:55.187Z,84.86
2022-11-20T23:40:52.110Z,84.42
2022-11-20T23:43:49.010Z,85.42
2022-11-20T23:46:46.122Z,86.14
2022-11-20T23:49:43.051Z,87.53
2022-11-20T23:52:40.258Z,87.69
2022-11-20T23:55:37.288Z,86.48
2022-11-20T23:58:35.911Z,85.33
